Time;durP1;ratioP1;P1;durP2;ratioP2;P2;SDS_P1;SDS_P2;PMS_P1;PMS_P2;Temp;Humidity;BMP_temperature;BMP_pressure;BME280_temperature;BME280_humidity;BME280_pressure;Samples;Min_cycle;Max_cycle;Signal;HPM_P1;HPM_P2
2021/10/28 00:17:11;;;;;;;42.38;21.15;;;;;;;4.33;100.00;100079.61;4421770;78;28453;-82
2021/10/28 00:23:13;;;;;;;43.52;21.23;;;;;;;4.23;100.00;100079.75;4418247;78;28610;-81
2021/10/28 00:29:18;;;;;;;42.88;21.60;;;;;;;4.30;100.00;100076.77;4417613;78;28466;-81
2021/10/28 00:35:19;;;;;;;47.73;25.40;;;;;;;4.17;100.00;100081.75;4439220;78;28583;-82
2021/10/28 00:41:23;;;;;;;44.95;23.25;;;;;;;4.13;100.00;100087.05;4431130;78;28499;-82
2021/10/28 00:47:24;;;;;;;37.38;19.62;;;;;;;4.10;100.00;100084.72;4425850;78;28537;-83
2021/10/28 00:53:26;;;;;;;35.20;19.95;;;;;;;3.91;100.00;100086.66;4422455;78;28468;-82
2021/10/28 00:59:27;;;;;;;40.17;19.77;;;;;;;3.92;100.00;100090.98;4467348;78;28456;-83
2021/10/28 01:05:30;;;;;;;42.83;21.45;;;;;;;3.80;100.00;100097.59;4427852;78;28490;-83
2021/10/28 01:11:33;;;;;;;41.50;22.37;;;;;;;3.90;100.00;100085.84;4417569;78;28442;-82
2021/10/28 01:17:35;;;;;;;46.10;21.50;;;;;;;3.75;100.00;100090.09;4415014;78;28500;-82
2021/10/28 01:23:41;;;;;;;39.30;20.37;;;;;;;3.66;100.00;100087.06;4420828;78;28440;-83
2021/10/28 01:29:42;;;;;;;;;;;;;;;3.59;100.00;100093.05;4431176;78;28480;-82
2021/10/28 01:35:45;;;;;;;40.52;20.05;;;;;;;3.45;100.00;100084.31;4427194;78;20184;-82
2021/10/28 01:41:46;;;;;;;42.10;22.35;;;;;;;3.57;100.00;100079.05;4383996;80;28785;-83
2021/10/28 01:47:48;;;;;;;42.20;22.80;;;;;;;3.71;100.00;100072.80;4383577;81;28553;-83
2021/10/28 01:53:50;;;;;;;38.90;21.93;;;;;;;3.61;100.00;100070.26;4384003;81;28497;-82
2021/10/28 01:59:54;;;;;;;43.05;20.97;;;;;;;3.53;100.00;100060.91;4383450;81;28499;-82
2021/10/28 02:05:56;;;;;;;41.83;21.42;;;;;;;3.52;100.00;100057.44;4384259;81;28438;-82
2021/10/28 02:11:58;;;;;;;36.40;19.73;;;;;;;3.46;100.00;100059.39;4383356;81;28498;-81
2021/10/28 02:18:00;;;;;;;42.78;21.87;;;;;;;3.29;100.00;100054.02;4384160;81;28567;-81
2021/10/28 02:24:02;;;;;;;45.92;22.62;;;;;;;3.39;100.00;100059.71;4384161;80;28520;-82
2021/10/28 02:30:07;;;;;;;44.08;22.90;;;;;;;3.46;100.00;100063.38;4395663;80;28536;-81
2021/10/28 02:36:08;;;;;;;38.60;20.50;;;;;;;3.39;100.00;100060.52;4383925;81;28511;-82
2021/10/28 02:42:10;;;;;;;40.05;20.17;;;;;;;3.28;100.00;100058.14;4367437;80;28474;-82
2021/10/28 02:48:11;;;;;;;40.33;21.02;;;;;;;3.20;100.00;100066.41;4383831;81;28466;-81
2021/10/28 02:54:21;;;;;;;40.98;22.15;;;;;;;3.18;100.00;100061.75;4364529;81;28548;-82
2021/10/28 03:00:22;;;;;;;44.15;23.50;;;;;;;3.19;100.00;100070.56;4359658;81;28476;-82
2021/10/28 03:06:24;;;;;;;43.20;22.50;;;;;;;3.10;100.00;100074.16;4384054;81;28529;-81
2021/10/28 03:12:25;;;;;;;44.55;22.80;;;;;;;3.06;100.00;100077.11;4384210;80;28466;-81
2021/10/28 03:30:49;;;;;;;40.58;20.40;;;;;;;2.87;100.00;100074.17;4345337;80;28448;-81
2021/10/28 04:32:56;;;;;;;34.65;16.85;;;;;;;2.41;100.00;100123.92;4440095;80;28594;-82
2021/10/28 04:39:01;;;;;;;33.23;17.00;;;;;;;2.38;100.00;100134.34;4450384;80;28478;-81
2021/10/28 04:45:05;;;;;;;32.98;16.25;;;;;;;2.40;100.00;100116.94;4431014;80;28462;-84
2021/10/28 04:51:06;;;;;;;34.60;17.35;;;;;;;2.40;100.00;100126.23;4446001;80;28527;-81
2021/10/28 04:57:07;;;;;;;31.70;16.80;;;;;;;2.38;100.00;100123.72;4426240;80;28458;-81
2021/10/28 05:03:09;;;;;;;33.67;17.85;;;;;;;2.31;100.00;100125.30;4426209;78;28448;-81
2021/10/28 05:09:12;;;;;;;34.00;16.50;;;;;;;2.17;100.00;100128.81;4451133;79;28437;-82
2021/10/28 05:15:13;;;;;;;27.62;15.48;;;;;;;2.34;100.00;100139.11;4416581;80;28547;-82
2021/10/28 05:21:15;;;;;;;32.58;17.23;;;;;;;2.28;100.00;100138.87;4411876;80;28494;-83
2021/10/28 05:27:17;;;;;;;44.27;22.60;;;;;;;2.25;100.00;100141.33;4399878;79;28508;-81
2021/10/28 05:33:18;;;;;;;34.25;19.15;;;;;;;2.35;100.00;100141.28;4450505;80;28425;-81
2021/10/28 05:39:19;;;;;;;42.88;23.38;;;;;;;2.38;100.00;100135.66;4436669;80;28473;-81
2021/10/28 05:45:21;;;;;;;52.93;27.70;;;;;;;2.46;100.00;100137.56;4430741;79;28546;-82
2021/10/28 05:51:26;;;;;;;56.37;27.32;;;;;;;2.46;100.00;100132.25;4462536;80;28473;-82
2021/10/28 05:57:28;;;;;;;42.25;20.97;;;;;;;2.50;100.00;100131.80;4438759;80;28480;-81
2021/10/28 06:03:30;;;;;;;46.05;24.20;;;;;;;2.43;100.00;100136.54;4425919;78;28525;-83
2021/10/28 06:09:32;;;;;;;46.30;24.12;;;;;;;2.63;100.00;100146.03;4447083;78;28465;-82
2021/10/28 06:15:35;;;;;;;47.88;25.57;;;;;;;2.73;100.00;100141.14;4426279;80;28555;-83
2021/10/28 06:21:38;;;;;;;59.73;28.12;;;;;;;2.85;100.00;100148.36;4426973;80;28570;-83
2021/10/28 06:27:40;;;;;;;53.52;27.40;;;;;;;3.08;100.00;100154.03;4423057;78;28464;-77
2021/10/28 06:33:53;;;;;;;49.30;25.37;;;;;;;3.26;100.00;100153.98;4436818;78;28476;-80
2021/10/28 06:39:51;;;;;;;51.40;25.72;;;;;;;3.34;100.00;100154.55;4433325;78;28465;-80
2021/10/28 06:45:53;;;;;;;54.03;27.25;;;;;;;3.52;100.00;100171.78;4407197;78;28464;-81
2021/10/28 06:51:54;;;;;;;65.22;32.13;;;;;;;3.66;100.00;100170.36;4413789;78;28472;-80
2021/10/28 07:02:12;;;;;;;61.58;31.15;;;;;;;3.95;100.00;100164.34;4404494;78;28515;-80
2021/10/28 07:04:00;;;;;;;63.33;31.30;;;;;;;3.99;100.00;100171.00;4409169;78;28450;-79
2021/10/28 07:10:07;;;;;;;59.80;30.92;;;;;;;4.29;100.00;100172.29;4408940;78;28475;-80
2021/10/28 07:34:45;;;;;;;44.05;22.87;;;;;;;5.09;100.00;100148.71;4408896;78;28507;-83
2021/10/28 08:06:08;;;;;;;35.58;19.92;;;;;;;6.50;100.00;100128.22;4266986;82;28482;-80
2021/10/28 08:30:28;;;;;;;43.53;24.03;;;;;;;7.36;100.00;100111.63;4365732;79;28541;-84
2021/10/28 08:36:32;;;;;;;46.53;24.10;;;;;;;7.55;100.00;100112.91;4367675;81;28541;-81
2021/10/28 08:42:32;;;;;;;41.33;22.15;;;;;;;7.80;100.00;100104.09;4391523;81;28513;-82
2021/10/28 08:48:37;;;;;;;42.10;23.57;;;;;;;7.99;100.00;100091.14;4364857;81;28511;-84
2021/10/28 08:54:56;;;;;;;40.98;23.12;;;;;;;8.24;100.00;100093.45;4388606;81;28449;-86
2021/10/28 09:26:27;;;;;;;29.15;17.07;;;;;;;9.33;100.00;100071.39;4339452;80;28486;-82
2021/10/28 09:45:30;;;;;;;32.20;16.67;;;;;;;10.00;100.00;100065.49;4340161;80;28537;-82
2021/10/28 09:51:48;;;;;;;30.77;16.80;;;;;;;10.26;100.00;100058.55;4410743;78;28454;-82
2021/10/28 09:58:00;;;;;;;29.92;16.00;;;;;;;10.40;100.00;100039.73;4328306;80;28541;-80
2021/10/28 10:04:02;;;;;;;33.13;17.32;;;;;;;10.56;100.00;100033.97;4409454;78;28510;-79
2021/10/28 10:10:05;;;;;;;31.93;16.33;;;;;;;10.68;100.00;100030.69;4347951;80;28442;-80
2021/10/28 10:16:09;;;;;;;27.93;15.83;;;;;;;10.92;100.00;100029.73;4354378;80;28473;-79
2021/10/28 12:17:23;;;;;;;17.23;9.73;;;;;;;13.09;93.32;99907.67;4368613;79;28537;-79
2021/10/28 12:49:01;;;;;;;12.70;7.30;;;;;;;13.21;85.20;99888.81;4412740;78;28448;-81
2021/10/28 14:23:13;;;;;;;12.25;6.35;;;;;;;13.39;84.94;99854.21;4403114;79;28453;-81
2021/10/28 15:32:38;;;;;;;13.53;6.53;;;;;;;12.00;100.00;99842.34;4339894;80;28542;-83
2021/10/28 15:51:18;;;;;;;15.20;5.83;;;;;;;11.23;100.00;99841.95;4363030;79;28503;-84
2021/10/28 16:21:51;;;;;;;14.55;6.97;;;;;;;10.31;100.00;99846.41;4377035;79;28506;-84
2021/10/28 16:27:50;;;;;;;14.80;5.72;;;;;;;10.12;100.00;99846.75;4370574;79;28486;-82
2021/10/28 16:33:52;;;;;;;12.93;5.78;;;;;;;9.94;100.00;99839.83;4369422;79;28446;-83
2021/10/28 16:39:53;;;;;;;15.38;6.40;;;;;;;9.80;100.00;99841.68;4385298;79;28506;-83
2021/10/28 16:45:55;;;;;;;12.15;5.87;;;;;;;9.69;100.00;99837.23;4354353;80;28531;-82
2021/10/28 16:51:56;;;;;;;13.93;6.35;;;;;;;9.48;100.00;99839.07;4355929;78;28526;-84
2021/10/28 16:57:58;;;;;;;15.00;7.08;;;;;;;9.31;100.00;99831.08;4352186;80;28452;-82
2021/10/28 17:04:04;;;;;;;13.00;5.47;;;;;;;9.16;100.00;99841.98;4277217;81;28481;-81
2021/10/28 17:10:06;;;;;;;11.68;5.42;;;;;;;9.09;100.00;99839.28;4333849;80;28461;-80
2021/10/28 17:16:15;;;;;;;19.90;7.47;;;;;;;8.95;100.00;99834.91;4342065;80;28472;-79
2021/10/28 17:22:18;;;;;;;16.17;6.95;;;;;;;8.93;100.00;99829.23;4274100;81;28518;-79
2021/10/28 17:28:19;;;;;;;12.60;6.70;;;;;;;8.82;100.00;99831.66;4344124;80;28469;-80
2021/10/28 17:34:25;;;;;;;17.02;6.55;;;;;;;8.66;100.00;99836.34;4286530;81;28532;-80
2021/10/28 17:40:29;;;;;;;12.33;6.23;;;;;;;8.53;100.00;99836.25;4339497;80;28568;-81
2021/10/28 17:46:30;;;;;;;16.82;6.42;;;;;;;8.29;100.00;99833.00;4413595;78;28526;-86
2021/10/28 17:52:32;;;;;;;13.05;6.28;;;;;;;8.25;100.00;99840.59;4409139;79;28514;-77
2021/10/28 17:58:34;;;;;;;15.35;6.30;;;;;;;8.25;100.00;99839.79;4350712;80;28517;-80
2021/10/28 18:04:35;;;;;;;15.53;7.83;;;;;;;8.07;100.00;99831.73;4327255;80;28517;-80
2021/10/28 18:10:37;;;;;;;19.42;8.13;;;;;;;8.16;100.00;99831.89;4335388;80;28620;-81
2021/10/28 18:16:40;;;;;;;16.48;7.33;;;;;;;8.03;100.00;99829.13;4406303;78;28550;-83
2021/10/28 18:22:43;;;;;;;17.05;6.42;;;;;;;7.80;100.00;99829.67;4431343;78;28486;-84
2021/10/28 18:28:45;;;;;;;15.28;6.58;;;;;;;7.66;100.00;99818.55;4433504;78;28488;-86
2021/10/28 18:34:47;;;;;;;12.45;5.70;;;;;;;7.63;100.00;99810.38;4423482;79;28471;-84
2021/10/28 18:40:48;;;;;;;18.37;7.12;;;;;;;7.57;100.00;99806.31;4327630;80;28485;-85
2021/10/28 18:46:50;;;;;;;17.73;7.30;;;;;;;7.60;100.00;99803.25;4361890;79;28444;-82
2021/10/28 18:52:51;;;;;;;19.10;8.23;;;;;;;7.34;100.00;99801.47;4363896;79;28477;-84
2021/10/28 18:58:53;;;;;;;33.50;9.30;;;;;;;7.24;100.00;99795.11;4368300;79;28467;-84
2021/10/28 19:04:57;;;;;;;81.50;16.00;;;;;;;7.02;100.00;99791.58;4367842;80;28493;-83
2021/10/28 19:11:00;;;;;;;97.65;19.15;;;;;;;6.95;100.00;99786.16;4363686;80;28443;-85
2021/10/28 19:17:03;;;;;;;79.95;17.62;;;;;;;6.97;100.00;99776.11;4367962;80;28468;-86
2021/10/28 19:23:07;;;;;;;37.35;11.57;;;;;;;7.04;100.00;99783.38;4343888;81;28568;-83
2021/10/28 19:29:09;;;;;;;30.35;11.03;;;;;;;6.84;100.00;99786.66;4369224;80;28521;-84
2021/10/28 19:35:14;;;;;;;21.23;10.63;;;;;;;6.75;100.00;99783.25;4359694;80;28511;-83
2021/10/28 19:47:18;;;;;;;18.25;9.48;;;;;;;6.52;100.00;99784.73;4357610;79;28465;-84
2021/10/28 19:53:22;;;;;;;16.57;8.75;;;;;;;6.38;100.00;99780.54;4347028;79;28522;-83
2021/10/28 19:59:27;;;;;;;21.73;10.88;;;;;;;6.25;100.00;99775.87;4364354;79;28487;-84
2021/10/28 20:05:52;;;;;;;18.75;10.05;;;;;;;6.38;100.00;99771.71;4337850;80;28478;-80
2021/10/28 20:24:14;;;;;;;23.40;11.12;;;;;;;6.08;100.00;99779.72;4369857;79;28458;-82
2021/10/28 20:30:19;;;;;;;29.82;14.90;;;;;;;6.04;100.00;99775.25;4368051;80;28469;-81
2021/10/28 20:42:36;;;;;;;23.38;12.43;;;;;;;5.88;100.00;99776.70;4394388;80;36184;-81
2021/10/28 20:48:31;;;;;;;24.95;12.78;;;;;;;5.90;100.00;99774.19;4401204;79;28532;-81
2021/10/28 20:54:36;;;;;;;26.90;14.20;;;;;;;5.69;100.00;99778.39;4382479;79;28517;-85
2021/10/28 21:00:38;;;;;;;31.75;14.45;;;;;;;5.65;100.00;99777.10;4361812;79;28444;-82
2021/10/28 21:06:40;;;;;;;32.00;16.57;;;;;;;5.49;100.00;99766.56;4346556;79;28485;-81
2021/10/28 21:12:43;;;;;;;35.52;18.05;;;;;;;5.52;100.00;99772.86;4392365;79;28514;-81
2021/10/28 21:18:45;;;;;;;40.48;19.50;;;;;;;5.53;100.00;99762.02;4397838;79;28437;-81
2021/10/28 21:24:50;;;;;;;45.30;22.02;;;;;;;5.43;100.00;99762.78;4402833;79;28473;-81
2021/10/28 21:30:49;;;;;;;48.33;22.73;;;;;;;5.50;100.00;99761.55;4391266;79;28453;-81
2021/10/28 21:36:51;;;;;;;40.50;20.20;;;;;;;5.39;100.00;99754.82;4411843;79;28453;-82
2021/10/28 21:42:52;;;;;;;43.92;22.62;;;;;;;5.35;100.00;99754.84;4371828;79;28485;-82
2021/10/28 21:48:54;;;;;;;49.30;23.52;;;;;;;5.42;100.00;99749.96;4455893;79;28559;-82
2021/10/28 22:26:11;;;;;;;49.58;25.25;;;;;;;5.13;100.00;99720.86;4371466;80;28452;-82
2021/10/28 22:32:15;;;;;;;53.00;25.12;;;;;;;5.00;100.00;99718.78;4381953;80;28477;-82
2021/10/28 22:38:17;;;;;;;51.73;25.75;;;;;;;4.82;100.00;99716.41;4341272;81;28483;-79
2021/10/28 22:44:19;;;;;;;47.75;23.22;;;;;;;4.76;100.00;99709.11;4388806;81;28500;-81
2021/10/28 22:50:20;;;;;;;41.60;21.55;;;;;;;4.60;100.00;99715.38;4386508;79;28469;-81
2021/10/28 22:56:22;;;;;;;46.25;24.72;;;;;;;4.62;100.00;99708.03;4398064;80;28501;-81
2021/10/28 23:08:51;;;;;;;49.25;26.25;;;;;;;4.57;100.00;99693.91;4388622;80;28488;-81
2021/10/28 23:20:56;;;;;;;48.68;24.25;;;;;;;4.41;100.00;99695.34;4440309;80;28453;-81
2021/10/28 23:26:57;;;;;;;46.25;24.00;;;;;;;4.27;100.00;99691.59;4410287;80;28519;-81
2021/10/28 23:33:00;;;;;;;52.48;26.52;;;;;;;4.18;100.00;99692.13;4429938;80;28499;-81
2021/10/28 23:39:02;;;;;;;52.62;28.47;;;;;;;4.17;100.00;99696.61;4440239;80;28507;-81
2021/10/28 23:45:05;;;;;;;58.15;29.12;;;;;;;4.17;100.00;99685.16;4445772;79;28510;-80
2021/10/28 23:51:06;;;;;;;56.15;29.42;;;;;;;4.01;100.00;99689.53;4434010;79;28499;-80
2021/10/28 23:57:08;;;;;;;49.55;25.40;;;;;;;3.99;100.00;99688.87;4440599;80;28433;-81
